createdAt,value
2023-01-30T00:01:12.836Z,15.07
2023-01-30T00:03:40.128Z,14.80
2023-01-30T00:06:07.582Z,14.03
2023-01-30T00:08:34.878Z,13.73
2023-01-30T00:11:11.589Z,13.40
2023-01-30T00:13:40.381Z,13.37
2023-01-30T00:16:10.076Z,12.80
2023-01-30T00:18:39.029Z,12.80
2023-01-30T00:21:08.618Z,13.70
2023-01-30T00:23:37.173Z,12.77
2023-01-30T00:26:06.062Z,13.50
2023-01-30T00:28:33.464Z,13.07
2023-01-30T00:31:00.841Z,13.20
2023-01-30T00:33:28.394Z,14.60
2023-01-30T00:35:57.517Z,15.27
2023-01-30T00:38:25.888Z,14.50
2023-01-30T00:40:53.163Z,13.87
2023-01-30T00:43:40.731Z,14.30
2023-01-30T00:46:39.568Z,14.20
2023-01-30T00:49:06.825Z,14.37
2023-01-30T00:51:35.276Z,14.27
2023-01-30T00:54:02.523Z,14.83
2023-01-30T00:56:31.715Z,15.77
2023-01-30T00:58:58.996Z,15.67
2023-01-30T01:01:26.332Z,14.77
2023-01-30T01:03:53.679Z,14.30
2023-01-30T01:06:21.074Z,15.93
2023-01-30T01:08:48.414Z,15.33
2023-01-30T01:11:24.626Z,14.13
2023-01-30T01:13:54.342Z,14.73
2023-01-30T01:16:22.212Z,14.10
2023-01-30T01:18:49.506Z,15.30
2023-01-30T01:21:19.359Z,14.43
2023-01-30T01:24:05.847Z,14.77
2023-01-30T01:26:34.261Z,14.53
2023-01-30T01:29:01.401Z,14.23
2023-01-30T01:31:30.386Z,14.27
2023-01-30T01:33:57.834Z,14.63
2023-01-30T01:36:52.129Z,14.17
2023-01-30T01:39:13.694Z,13.87
2023-01-30T01:41:40.920Z,14.97
2023-01-30T01:44:11.377Z,14.80
2023-01-30T01:46:39.571Z,14.57
2023-01-30T01:49:17.428Z,15.33
2023-01-30T01:51:51.710Z,14.93
2023-01-30T01:54:39.040Z,15.93
2023-01-30T01:57:16.017Z,14.87
2023-01-30T01:59:53.159Z,16.43
2023-01-30T02:02:20.991Z,14.33
2023-01-30T02:05:03.219Z,14.73
2023-01-30T02:07:58.544Z,16.07
2023-01-30T02:10:49.128Z,14.93
2023-01-30T02:13:17.294Z,14.40
2023-01-30T02:15:44.455Z,14.17
2023-01-30T02:18:13.626Z,15.70
2023-01-30T02:20:55.943Z,15.20
2023-01-30T02:23:38.419Z,14.77
2023-01-30T02:26:29.919Z,14.23
2023-01-30T02:29:03.467Z,15.30
2023-01-30T02:31:43.057Z,14.87
2023-01-30T02:34:40.310Z,15.00
2023-01-30T02:37:25.497Z,14.27
2023-01-30T02:40:19.841Z,14.07
2023-01-30T02:42:57.226Z,15.17
2023-01-30T02:45:26.615Z,15.87
2023-01-30T02:48:04.017Z,14.90
2023-01-30T02:50:42.647Z,14.40
2023-01-30T02:53:11.090Z,14.43
2023-01-30T02:55:42.072Z,14.27
2023-01-30T02:58:10.929Z,14.80
2023-01-30T03:01:08.071Z,18.03
2023-01-30T03:03:58.757Z,16.73
2023-01-30T03:07:03.278Z,14.60
2023-01-30T03:09:46.027Z,15.80
2023-01-30T03:12:23.858Z,14.77
2023-01-30T03:15:17.484Z,14.90
2023-01-30T03:17:48.243Z,17.40
2023-01-30T03:20:20.401Z,16.07
2023-01-30T03:22:47.895Z,15.30
2023-01-30T03:25:20.557Z,15.57
2023-01-30T03:27:52.096Z,16.43
2023-01-30T03:30:20.445Z,15.37
2023-01-30T03:32:49.328Z,16.03
2023-01-30T03:35:18.322Z,15.97
2023-01-30T03:37:46.631Z,15.50
2023-01-30T03:40:16.376Z,15.47
2023-01-30T03:42:46.454Z,15.40
2023-01-30T03:45:14.789Z,15.07
2023-01-30T03:47:48.075Z,14.53
2023-01-30T03:50:16.986Z,14.50
2023-01-30T03:52:46.156Z,14.63
2023-01-30T03:55:17.541Z,14.57
2023-01-30T03:57:45.134Z,13.50
2023-01-30T04:00:12.896Z,12.60
2023-01-30T04:02:50.370Z,14.73
2023-01-30T04:05:19.279Z,13.70
2023-01-30T04:07:58.042Z,12.27
2023-01-30T04:10:26.427Z,13.73
2023-01-30T04:12:53.866Z,14.03
2023-01-30T04:15:22.570Z,14.17
2023-01-30T04:18:08.667Z,13.90
2023-01-30T04:21:05.884Z,14.40
2023-01-30T04:23:38.029Z,14.27
2023-01-30T04:26:07.268Z,14.17
2023-01-30T04:28:38.798Z,14.43
2023-01-30T04:31:07.255Z,14.43
2023-01-30T04:33:57.409Z,14.97
2023-01-30T04:36:24.932Z,13.93
2023-01-30T04:38:52.222Z,13.97
2023-01-30T04:41:21.620Z,13.50
2023-01-30T04:43:49.717Z,14.73
2023-01-30T04:46:35.769Z,13.10
2023-01-30T04:49:03.095Z,13.73
2023-01-30T04:51:30.589Z,13.00
2023-01-30T04:53:59.496Z,14.73
2023-01-30T04:56:27.318Z,13.17
2023-01-30T04:58:55.557Z,14.17
2023-01-30T05:01:30.252Z,13.83
2023-01-30T05:03:57.761Z,14.17
2023-01-30T05:06:24.939Z,14.37
2023-01-30T05:08:54.756Z,14.43
2023-01-30T05:11:23.818Z,14.33
2023-01-30T05:13:52.269Z,14.70
2023-01-30T05:16:21.377Z,14.53
2023-01-30T05:18:49.079Z,13.67
2023-01-30T05:21:28.907Z,13.97
2023-01-30T05:23:57.804Z,15.23
2023-01-30T05:26:25.194Z,14.73
2023-01-30T05:28:57.875Z,14.60
2023-01-30T05:31:25.422Z,14.27
2023-01-30T05:33:53.201Z,15.03
2023-01-30T05:36:22.775Z,14.80
2023-01-30T05:38:50.174Z,14.63
2023-01-30T05:41:18.442Z,14.37
2023-01-30T05:43:49.770Z,15.53
2023-01-30T05:46:17.631Z,15.50
2023-01-30T05:48:44.957Z,15.23
2023-01-30T05:51:21.210Z,14.33
2023-01-30T05:53:49.358Z,14.57
2023-01-30T05:56:17.327Z,14.27
2023-01-30T05:58:49.774Z,14.93
2023-01-30T06:01:18.610Z,15.20
2023-01-30T06:03:46.879Z,14.57
2023-01-30T06:06:14.317Z,14.77
2023-01-30T06:08:42.008Z,14.27
2023-01-30T06:11:12.520Z,16.03
2023-01-30T06:13:40.069Z,14.30
2023-01-30T06:16:08.654Z,14.50
2023-01-30T06:18:36.425Z,15.47
2023-01-30T06:21:04.374Z,14.90
2023-01-30T06:23:33.109Z,14.77
2023-01-30T06:26:02.137Z,15.13
2023-01-30T06:28:31.254Z,15.80
2023-01-30T06:30:58.892Z,14.23
2023-01-30T06:33:26.331Z,15.40
2023-01-30T06:35:54.026Z,14.93
2023-01-30T06:38:21.408Z,16.00
2023-01-30T06:40:50.455Z,16.23
2023-01-30T06:43:18.203Z,15.77
2023-01-30T06:45:45.406Z,15.63
2023-01-30T06:48:13.148Z,15.43
2023-01-30T06:50:40.430Z,13.93
2023-01-30T06:53:08.784Z,15.77
2023-01-30T06:55:36.786Z,14.10
2023-01-30T06:58:09.824Z,12.60
2023-01-30T07:00:40.439Z,13.27
2023-01-30T07:03:15.459Z,14.43
2023-01-30T07:05:44.874Z,14.23
2023-01-30T07:08:13.359Z,13.30
2023-01-30T07:10:41.919Z,14.07
2023-01-30T07:13:09.706Z,14.17
2023-01-30T07:15:37.005Z,15.10
2023-01-30T07:18:04.460Z,14.40
2023-01-30T07:20:32.041Z,13.77
2023-01-30T07:22:59.555Z,14.60
2023-01-30T07:25:28.330Z,13.97
2023-01-30T07:27:58.496Z,14.97
2023-01-30T07:30:27.786Z,14.90
2023-01-30T07:32:58.006Z,14.67
2023-01-30T07:35:27.291Z,14.40
2023-01-30T07:37:55.927Z,13.13
2023-01-30T07:40:24.304Z,13.30
2023-01-30T07:42:58.288Z,13.47
2023-01-30T07:45:31.602Z,13.47
2023-01-30T07:47:58.953Z,13.10
2023-01-30T07:50:26.371Z,14.30
2023-01-30T07:52:53.565Z,13.87
2023-01-30T07:55:20.893Z,13.77
2023-01-30T07:57:48.322Z,12.17
2023-01-30T08:00:16.815Z,12.67
2023-01-30T08:02:44.303Z,13.50
2023-01-30T08:05:11.548Z,12.60
2023-01-30T08:07:39.612Z,12.23
2023-01-30T08:10:09.328Z,12.83
2023-01-30T08:12:38.311Z,13.90
2023-01-30T08:15:06.276Z,12.80
2023-01-30T08:17:34.554Z,12.57
2023-01-30T08:20:01.949Z,13.33
2023-01-30T08:22:29.524Z,12.07
2023-01-30T08:24:56.694Z,12.00
2023-01-30T08:27:23.990Z,13.37
2023-01-30T08:29:51.230Z,12.53
2023-01-30T08:32:18.526Z,12.60
2023-01-30T08:34:45.635Z,12.80
2023-01-30T08:37:12.968Z,12.47
2023-01-30T08:39:40.322Z,12.53
2023-01-30T08:42:07.799Z,12.67
2023-01-30T08:44:35.084Z,12.07
2023-01-30T08:47:02.377Z,11.07
2023-01-30T08:49:29.501Z,11.23
2023-01-30T08:51:57.174Z,11.63
2023-01-30T08:54:24.339Z,12.00
2023-01-30T08:56:51.569Z,12.10
2023-01-30T08:59:18.746Z,11.80
2023-01-30T09:01:46.047Z,10.27
2023-01-30T09:04:13.276Z,9.93
2023-01-30T09:06:40.466Z,11.17
2023-01-30T09:09:07.997Z,11.03
2023-01-30T09:11:35.381Z,10.07
2023-01-30T09:14:02.514Z,10.17
2023-01-30T09:16:29.839Z,11.10
2023-01-30T09:18:57.055Z,10.53
2023-01-30T09:21:24.687Z,10.73
2023-01-30T09:23:51.895Z,10.47
2023-01-30T09:26:19.331Z,9.90
2023-01-30T09:28:46.642Z,9.40
2023-01-30T09:31:13.965Z,9.27
2023-01-30T09:33:41.375Z,9.27
2023-01-30T09:36:09.296Z,10.13
2023-01-30T09:38:36.415Z,9.80
2023-01-30T09:41:12.675Z,9.80
2023-01-30T09:44:02.650Z,10.00
2023-01-30T09:46:50.421Z,10.20
2023-01-30T09:49:50.101Z,8.80
2023-01-30T09:52:23.413Z,9.67
2023-01-30T09:54:53.992Z,8.73
2023-01-30T09:57:26.056Z,8.67
2023-01-30T10:00:21.565Z,9.20
2023-01-30T10:03:09.062Z,8.60
2023-01-30T10:05:50.326Z,8.83
2023-01-30T10:08:39.025Z,9.23
2023-01-30T10:11:15.100Z,8.13
2023-01-30T10:14:20.076Z,7.77
2023-01-30T10:17:16.898Z,7.67
2023-01-30T10:20:19.943Z,7.97
2023-01-30T10:22:55.997Z,8.13
2023-01-30T10:25:44.348Z,8.83
2023-01-30T10:28:32.593Z,7.20
2023-01-30T10:31:11.528Z,8.37
2023-01-30T10:34:01.453Z,8.50
2023-01-30T10:36:53.846Z,8.13
2023-01-30T10:39:56.632Z,7.27
2023-01-30T10:42:43.879Z,7.13
2023-01-30T10:45:16.463Z,7.30
2023-01-30T10:47:55.588Z,7.13
2023-01-30T10:51:00.012Z,6.80
2023-01-30T10:53:54.161Z,6.80
2023-01-30T10:56:33.472Z,6.57
2023-01-30T10:59:11.966Z,7.03
2023-01-30T11:01:47.036Z,6.87
2023-01-30T11:04:47.356Z,6.60
2023-01-30T11:07:15.057Z,7.27
2023-01-30T11:09:50.052Z,6.37
2023-01-30T11:12:17.349Z,6.10
2023-01-30T11:15:04.392Z,6.27
2023-01-30T11:17:43.087Z,6.73
2023-01-30T11:20:20.156Z,6.10
2023-01-30T11:23:04.887Z,6.20
2023-01-30T11:25:46.957Z,5.73
2023-01-30T11:28:17.533Z,6.33
2023-01-30T11:30:50.728Z,6.23
2023-01-30T11:33:22.030Z,6.33
2023-01-30T11:35:56.486Z,6.53
2023-01-30T11:38:30.011Z,6.37
2023-01-30T11:41:13.435Z,6.37
2023-01-30T11:43:40.821Z,5.53
2023-01-30T11:46:16.267Z,6.77
2023-01-30T11:49:33.635Z,6.30
2023-01-30T11:51:47.717Z,7.13
2023-01-30T11:54:18.906Z,6.57
2023-01-30T11:56:52.734Z,5.80
2023-01-30T11:59:19.925Z,6.37
2023-01-30T12:01:47.301Z,6.63
2023-01-30T12:04:14.915Z,6.10
2023-01-30T12:06:43.801Z,6.10
2023-01-30T12:09:29.934Z,6.70
2023-01-30T12:11:57.167Z,5.40
2023-01-30T12:14:41.697Z,5.97
2023-01-30T12:17:36.476Z,5.93
2023-01-30T12:20:40.564Z,6.03
2023-01-30T12:23:32.141Z,5.67
2023-01-30T12:26:12.564Z,5.80
2023-01-30T12:29:17.592Z,6.43
2023-01-30T12:31:50.549Z,6.03
2023-01-30T12:34:18.242Z,6.50
2023-01-30T12:36:48.327Z,6.60
2023-01-30T12:39:21.460Z,5.37
2023-01-30T12:42:03.531Z,5.53
2023-01-30T12:45:12.995Z,6.10
2023-01-30T12:47:56.365Z,5.93
2023-01-30T12:53:51.310Z,6.07
2023-01-30T12:56:29.343Z,4.90
2023-01-30T12:59:14.726Z,5.07
2023-01-30T13:01:53.827Z,5.30
2023-01-30T13:04:56.429Z,4.77
2023-01-30T13:07:50.570Z,5.00
2023-01-30T13:10:50.197Z,4.40
2023-01-30T13:13:24.038Z,4.70
2023-01-30T13:15:52.393Z,4.87
2023-01-30T13:18:48.443Z,4.30
2023-01-30T13:21:55.101Z,4.40
2023-01-30T13:24:48.520Z,4.43
2023-01-30T13:27:22.005Z,4.17
2023-01-30T13:29:50.476Z,4.33
2023-01-30T13:32:42.714Z,4.23
2023-01-30T13:35:20.076Z,4.30
2023-01-30T13:37:49.238Z,4.07
2023-01-30T13:40:23.883Z,3.90
2023-01-30T13:42:59.340Z,4.63
2023-01-30T13:45:29.572Z,4.07
2023-01-30T13:48:03.834Z,4.30
2023-01-30T13:50:55.730Z,4.50
2023-01-30T13:53:34.085Z,4.27
2023-01-30T13:56:40.168Z,4.43
2023-01-30T13:59:29.343Z,3.93
2023-01-30T14:01:59.752Z,4.90
2023-01-30T14:04:43.531Z,5.20
2023-01-30T14:07:39.127Z,5.40
2023-01-30T14:10:11.299Z,5.10
2023-01-30T14:12:51.153Z,5.23
2023-01-30T14:15:21.479Z,5.03
2023-01-30T14:17:58.384Z,4.37
2023-01-30T14:20:27.822Z,4.77
2023-01-30T14:22:59.095Z,4.70
2023-01-30T14:25:26.414Z,4.97
2023-01-30T14:28:00.744Z,5.07
2023-01-30T14:30:50.579Z,5.33
2023-01-30T14:33:24.147Z,5.67
2023-01-30T14:36:03.443Z,5.20
2023-01-30T14:38:41.834Z,5.87
2023-01-30T14:41:17.511Z,6.10
2023-01-30T14:43:45.044Z,5.23
2023-01-30T14:46:18.346Z,5.90
2023-01-30T14:48:54.515Z,5.17
2023-01-30T14:51:24.739Z,4.90
2023-01-30T14:54:07.205Z,5.87
2023-01-30T14:56:42.228Z,5.23
2023-01-30T14:59:33.257Z,6.00
2023-01-30T15:02:12.607Z,5.33
2023-01-30T15:04:56.299Z,6.17
2023-01-30T15:07:32.614Z,5.47
2023-01-30T15:10:11.764Z,5.23
2023-01-30T15:13:17.764Z,5.20
2023-01-30T15:16:08.401Z,5.13
2023-01-30T15:19:13.628Z,5.23
2023-01-30T15:21:49.951Z,4.87
2023-01-30T15:24:23.382Z,5.00
2023-01-30T15:26:59.571Z,5.40
2023-01-30T15:29:53.876Z,5.60
2023-01-30T15:32:29.927Z,4.70
2023-01-30T15:34:59.591Z,5.30
2023-01-30T15:37:35.294Z,5.30
2023-01-30T15:40:21.086Z,5.33
2023-01-30T15:42:57.364Z,5.43
2023-01-30T15:45:36.830Z,5.50
2023-01-30T15:48:42.909Z,5.50
2023-01-30T15:51:14.239Z,5.50
2023-01-30T15:53:48.026Z,6.47
2023-01-30T15:56:23.220Z,6.27
2023-01-30T15:58:51.761Z,6.33
2023-01-30T16:01:22.571Z,5.47
2023-01-30T16:03:51.410Z,5.70
2023-01-30T16:06:34.306Z,6.33
2023-01-30T16:09:08.547Z,6.60
2023-01-30T16:11:42.923Z,6.30
2023-01-30T16:14:15.652Z,6.57
2023-01-30T16:16:55.036Z,6.37
2023-01-30T16:19:34.890Z,6.63
2023-01-30T16:22:15.674Z,6.80
2023-01-30T16:24:46.273Z,6.00
2023-01-30T16:27:29.814Z,6.67
2023-01-30T16:30:08.743Z,6.80
2023-01-30T16:32:38.705Z,7.17
2023-01-30T16:35:27.268Z,7.30
2023-01-30T16:37:57.932Z,6.40
2023-01-30T16:40:31.131Z,7.43
2023-01-30T16:43:04.660Z,7.03
2023-01-30T16:45:34.959Z,6.57
2023-01-30T16:48:33.564Z,6.73
2023-01-30T16:51:01.216Z,7.40
2023-01-30T16:53:31.429Z,7.47
2023-01-30T16:56:14.673Z,7.57
2023-01-30T16:58:46.615Z,7.33
2023-01-30T17:01:13.937Z,7.13
2023-01-30T17:03:44.517Z,7.07
2023-01-30T17:06:23.860Z,7.03
2023-01-30T17:08:58.973Z,7.00
2023-01-30T17:11:36.296Z,6.43
2023-01-30T17:14:31.452Z,5.80
2023-01-30T17:17:07.791Z,6.00
2023-01-30T17:19:36.324Z,6.40
2023-01-30T17:22:07.589Z,6.57
2023-01-30T17:24:36.237Z,6.57
2023-01-30T17:27:04.840Z,6.17
2023-01-30T17:29:42.549Z,6.30
2023-01-30T17:32:15.529Z,5.77
2023-01-30T17:34:43.259Z,5.93
2023-01-30T17:37:20.100Z,5.70
2023-01-30T17:39:48.342Z,5.57
2023-01-30T17:42:22.266Z,5.43
2023-01-30T17:44:50.154Z,5.27
2023-01-30T17:47:17.565Z,5.90
2023-01-30T17:49:44.835Z,5.53
2023-01-30T17:52:14.192Z,5.33
2023-01-30T17:54:41.358Z,5.30
2023-01-30T17:57:11.981Z,5.37
2023-01-30T17:59:39.758Z,5.80
2023-01-30T18:02:09.911Z,6.27
2023-01-30T18:04:37.352Z,6.10
2023-01-30T18:07:09.672Z,6.07
2023-01-30T18:09:37.899Z,5.80
2023-01-30T18:12:05.780Z,5.57
2023-01-30T18:14:33.050Z,6.10
2023-01-30T18:17:01.961Z,5.90
2023-01-30T18:19:31.602Z,5.97
2023-01-30T18:21:59.197Z,5.77
2023-01-30T18:24:26.399Z,5.33
2023-01-30T18:26:54.242Z,5.20
2023-01-30T18:29:21.659Z,5.67
2023-01-30T18:31:48.958Z,5.27
2023-01-30T18:34:16.495Z,5.30
2023-01-30T18:36:43.893Z,4.90
2023-01-30T18:39:12.395Z,5.23
2023-01-30T18:41:39.603Z,5.43
2023-01-30T18:44:07.382Z,4.83
2023-01-30T18:46:36.394Z,5.10
2023-01-30T18:49:03.549Z,5.20
2023-01-30T18:51:35.176Z,4.97
2023-01-30T18:54:04.974Z,4.80
2023-01-30T18:56:35.569Z,4.97
2023-01-30T18:59:06.273Z,4.87
2023-01-30T19:01:39.570Z,4.43
2023-01-30T19:04:09.929Z,4.87
2023-01-30T19:06:40.563Z,4.93
2023-01-30T19:09:08.895Z,4.90
2023-01-30T19:11:54.655Z,4.93
2023-01-30T19:14:22.051Z,4.43
2023-01-30T19:16:51.451Z,5.23
2023-01-30T19:19:21.520Z,5.07
2023-01-30T19:21:52.497Z,5.30
2023-01-30T19:24:21.295Z,5.03
2023-01-30T19:26:48.779Z,5.23
2023-01-30T19:29:17.122Z,5.20
2023-01-30T19:31:47.450Z,6.10
2023-01-30T19:34:16.163Z,5.03
2023-01-30T19:36:43.611Z,5.47
2023-01-30T19:39:10.954Z,5.20
2023-01-30T19:41:38.813Z,5.60
2023-01-30T19:44:08.341Z,4.90
2023-01-30T19:46:36.258Z,4.80
2023-01-30T19:49:05.627Z,5.17
2023-01-30T19:51:36.094Z,4.57
2023-01-30T19:54:11.040Z,4.87
2023-01-30T19:56:42.088Z,4.77
2023-01-30T19:59:13.293Z,5.10
2023-01-30T20:01:42.302Z,5.00
2023-01-30T20:04:09.572Z,5.43
2023-01-30T20:06:38.422Z,5.13
2023-01-30T20:09:10.203Z,5.80
2023-01-30T20:11:39.720Z,5.50
2023-01-30T20:14:07.327Z,4.60
2023-01-30T20:16:36.135Z,4.73
2023-01-30T20:19:11.919Z,4.20
2023-01-30T20:21:40.430Z,3.47
2023-01-30T20:24:14.263Z,3.33
2023-01-30T20:26:41.904Z,3.37
2023-01-30T20:29:10.510Z,2.90
2023-01-30T20:31:41.411Z,3.10
2023-01-30T20:34:12.123Z,2.73
2023-01-30T20:36:39.648Z,3.47
2023-01-30T20:39:13.142Z,4.07
2023-01-30T20:41:42.017Z,4.13
2023-01-30T20:44:13.160Z,4.13
2023-01-30T20:46:47.464Z,4.50
2023-01-30T20:49:17.812Z,5.20
2023-01-30T20:51:46.560Z,5.33
2023-01-30T20:54:15.482Z,4.50
2023-01-30T20:56:51.332Z,4.33
2023-01-30T20:59:24.281Z,4.97
2023-01-30T21:01:52.611Z,4.80
2023-01-30T21:04:21.277Z,4.13
2023-01-30T21:06:48.592Z,4.60
2023-01-30T21:09:18.893Z,4.30
2023-01-30T21:11:47.461Z,5.23
2023-01-30T21:14:16.511Z,4.20
2023-01-30T21:16:44.904Z,4.10
2023-01-30T21:19:16.636Z,3.57
2023-01-30T21:21:55.301Z,3.93
2023-01-30T21:24:29.785Z,3.27
2023-01-30T21:26:57.624Z,2.43
2023-01-30T21:29:28.522Z,2.00
2023-01-30T21:31:57.774Z,1.60
2023-01-30T21:34:25.648Z,1.67
2023-01-30T21:37:11.476Z,1.73
2023-01-30T21:39:57.693Z,1.20
2023-01-30T21:42:43.476Z,2.53
2023-01-30T21:45:10.856Z,3.57
2023-01-30T21:47:38.089Z,3.90
2023-01-30T21:50:05.933Z,4.30
2023-01-30T21:52:33.599Z,4.50
2023-01-30T21:55:00.893Z,4.70
2023-01-30T21:57:28.181Z,5.40
2023-01-30T21:59:55.671Z,4.33
2023-01-30T22:02:22.954Z,4.60
2023-01-30T22:04:50.325Z,4.20
2023-01-30T22:07:17.636Z,4.60
2023-01-30T22:09:44.834Z,4.33
2023-01-30T22:12:12.095Z,4.50
2023-01-30T22:14:39.798Z,4.53
2023-01-30T22:17:07.281Z,4.80
2023-01-30T22:19:35.863Z,5.00
2023-01-30T22:22:04.776Z,4.77
2023-01-30T22:24:32.151Z,4.53
2023-01-30T22:26:59.618Z,4.37
2023-01-30T22:29:29.333Z,4.17
2023-01-30T22:31:56.853Z,4.10
2023-01-30T22:34:24.206Z,4.50
2023-01-30T22:36:52.249Z,4.23
2023-01-30T22:39:19.486Z,2.50
2023-01-30T22:41:46.812Z,2.60
2023-01-30T22:44:14.010Z,2.20
2023-01-30T22:46:42.218Z,1.47
2023-01-30T22:49:10.216Z,1.17
2023-01-30T22:51:40.866Z,1.10
2023-01-30T22:54:15.806Z,1.83
2023-01-30T22:56:45.793Z,1.30
2023-01-30T22:59:14.137Z,1.57
2023-01-30T23:01:44.933Z,2.33
2023-01-30T23:04:30.339Z,1.50
2023-01-30T23:06:58.030Z,1.87
2023-01-30T23:09:25.205Z,1.70
2023-01-30T23:12:13.987Z,1.77
2023-01-30T23:14:43.064Z,1.33
2023-01-30T23:17:29.311Z,2.00
2023-01-30T23:19:57.409Z,0.90
2023-01-30T23:22:24.729Z,1.03
2023-01-30T23:24:52.841Z,1.30
2023-01-30T23:27:21.356Z,2.40
2023-01-30T23:29:48.779Z,1.30
2023-01-30T23:32:20.284Z,1.27
2023-01-30T23:34:48.493Z,0.93
2023-01-30T23:37:16.662Z,1.17
2023-01-30T23:39:45.172Z,1.20
2023-01-30T23:42:12.618Z,1.77
2023-01-30T23:44:40.190Z,1.40
2023-01-30T23:47:07.763Z,1.40
2023-01-30T23:49:35.333Z,1.63
2023-01-30T23:52:02.795Z,2.10
2023-01-30T23:54:30.041Z,1.50
2023-01-30T23:56:57.374Z,1.27
2023-01-30T23:59:24.593Z,1.20
